Time;durP1;ratioP1;P1;durP2;ratioP2;P2;SDS_P1;SDS_P2;PMS_P1;PMS_P2;Temp;Humidity;BMP_temperature;BMP_pressure;BME280_temperature;BME280_humidity;BME280_pressure;Samples;Min_cycle;Max_cycle;Signal;HPM_P1;HPM_P2
2023/09/30 00:02:21;;;;;;;10.50;5.10;;;14.10;99.90;;;;;;5087295;28;20477;-66
2023/09/30 00:04:48;;;;;;;10.07;5.30;;;14.10;99.90;;;;;;5077085;28;20923;-66
2023/09/30 00:07:15;;;;;;;10.32;5.20;;;14.10;99.90;;;;;;5074355;28;20410;-66
2023/09/30 00:09:41;;;;;;;8.30;4.60;;;14.00;99.90;;;;;;5089603;28;20780;-68
2023/09/30 00:12:08;;;;;;;10.70;5.13;;;14.00;99.90;;;;;;5075233;28;20417;-67
2023/09/30 00:14:35;;;;;;;9.07;5.57;;;13.90;99.90;;;;;;5087533;28;20852;-67
2023/09/30 00:17:02;;;;;;;9.70;5.60;;;13.90;99.90;;;;;;5087280;28;20912;-67
2023/09/30 00:19:32;;;;;;;10.13;5.57;;;13.90;99.90;;;;;;5098919;28;20410;-68
2023/09/30 00:21:59;;;;;;;8.95;5.30;;;13.90;99.90;;;;;;5089644;28;20434;-66
2023/09/30 00:24:26;;;;;;;11.85;5.65;;;13.90;99.90;;;;;;5076137;28;20407;-67
2023/09/30 00:26:53;;;;;;;8.48;5.10;;;13.80;99.90;;;;;;5083278;28;20413;-67
2023/09/30 00:29:20;;;;;;;11.17;6.03;;;13.80;99.90;;;;;;5089134;28;20510;-66
2023/09/30 00:31:47;;;;;;;9.67;6.37;;;13.80;99.90;;;;;;5080926;28;20427;-66
2023/09/30 00:34:14;;;;;;;12.45;6.68;;;13.80;99.90;;;;;;5073658;28;20709;-69
2023/09/30 00:36:42;;;;;;;11.50;6.22;;;13.90;99.90;;;;;;5076379;28;20446;-65
2023/09/30 00:39:09;;;;;;;9.70;5.85;;;13.90;99.90;;;;;;5081747;28;20413;-66
2023/09/30 00:41:36;;;;;;;9.87;5.80;;;13.90;99.90;;;;;;5076744;28;20441;-67
2023/09/30 00:44:03;;;;;;;10.30;6.10;;;13.90;99.90;;;;;;5089378;28;20499;-66
2023/09/30 00:46:31;;;;;;;9.60;5.40;;;14.00;99.90;;;;;;5081105;28;20406;-67
2023/09/30 00:48:59;;;;;;;8.32;5.53;;;14.00;99.90;;;;;;5086337;28;20425;-68
2023/09/30 00:51:27;;;;;;;7.95;5.43;;;14.00;99.90;;;;;;5082823;28;20431;-68
2023/09/30 00:53:57;;;;;;;9.40;6.10;;;14.00;99.90;;;;;;5079499;28;20501;-67
2023/09/30 00:56:26;;;;;;;11.13;5.88;;;14.00;99.90;;;;;;5085241;28;20433;-66
2023/09/30 00:58:54;;;;;;;9.50;5.65;;;14.00;99.90;;;;;;5080229;28;20418;-67
2023/09/30 01:01:21;;;;;;;9.07;5.88;;;13.90;99.90;;;;;;5087615;28;20414;-67
2023/09/30 01:03:48;;;;;;;10.20;6.00;;;13.80;99.90;;;;;;5087668;28;20908;-68
2023/09/30 01:06:15;;;;;;;9.63;6.20;;;13.80;99.90;;;;;;5081474;28;20429;-67
2023/09/30 01:08:42;;;;;;;9.65;6.05;;;13.70;99.90;;;;;;5089589;28;20409;-66
2023/09/30 01:11:10;;;;;;;9.95;5.75;;;13.70;99.90;;;;;;5096445;28;20410;-65
2023/09/30 01:13:38;;;;;;;8.13;5.85;;;13.70;99.90;;;;;;5093135;28;20417;-66
2023/09/30 01:16:05;;;;;;;8.95;5.25;;;13.80;99.90;;;;;;5088557;28;20410;-67
2023/09/30 01:18:32;;;;;;;11.10;6.20;;;13.80;99.90;;;;;;5082636;28;20450;-67
2023/09/30 01:21:01;;;;;;;11.03;6.17;;;13.70;99.90;;;;;;5086001;28;20406;-65
2023/09/30 01:23:29;;;;;;;10.43;6.00;;;13.80;99.90;;;;;;5076828;28;20518;-66
2023/09/30 01:25:56;;;;;;;9.20;5.50;;;13.80;99.90;;;;;;5077930;28;20545;-66
2023/09/30 01:28:23;;;;;;;8.13;5.10;;;13.80;99.90;;;;;;5074912;28;20456;-65
2023/09/30 01:30:51;;;;;;;7.72;4.88;;;13.80;99.90;;;;;;5086810;28;20886;-68
2023/09/30 01:33:18;;;;;;;6.80;4.70;;;13.80;99.90;;;;;;5079846;28;20535;-66
2023/09/30 01:35:45;;;;;;;9.95;5.05;;;13.70;99.90;;;;;;5076203;28;20429;-65
2023/09/30 01:38:12;;;;;;;7.72;5.10;;;13.70;99.90;;;;;;5078478;28;20465;-66
2023/09/30 01:40:40;;;;;;;8.03;4.70;;;13.60;99.90;;;;;;5087145;28;20433;-66
2023/09/30 01:43:07;;;;;;;8.40;5.10;;;13.60;99.90;;;;;;5087591;28;20464;-68
2023/09/30 01:45:35;;;;;;;7.32;4.80;;;13.50;99.90;;;;;;5081876;28;20415;-66
2023/09/30 01:48:02;;;;;;;7.90;5.28;;;13.50;99.90;;;;;;5079271;28;20429;-66
2023/09/30 01:50:29;;;;;;;8.02;5.45;;;13.50;99.90;;;;;;5081161;28;20414;-66
2023/09/30 01:52:55;;;;;;;10.85;5.50;;;13.50;99.90;;;;;;5078590;28;20410;-66
2023/09/30 01:55:22;;;;;;;8.73;4.88;;;13.50;99.90;;;;;;5081747;28;20412;-66
2023/09/30 01:57:50;;;;;;;9.88;4.53;;;13.60;99.90;;;;;;5079010;28;20420;-67
2023/09/30 02:00:17;;;;;;;8.40;5.50;;;13.50;99.90;;;;;;5084223;28;20460;-66
2023/09/30 02:02:44;;;;;;;7.70;5.25;;;13.50;99.90;;;;;;5085459;28;20429;-66
2023/09/30 02:05:10;;;;;;;9.05;5.00;;;13.40;99.90;;;;;;5085606;28;20432;-66
2023/09/30 02:07:38;;;;;;;8.15;5.00;;;13.40;99.90;;;;;;5085087;28;20435;-66
2023/09/30 02:10:05;;;;;;;7.53;4.93;;;13.30;99.90;;;;;;5079205;28;20409;-66
2023/09/30 02:12:32;;;;;;;10.18;5.15;;;13.30;99.90;;;;;;5083871;28;20427;-66
2023/09/30 02:15:00;;;;;;;8.13;5.25;;;13.30;99.90;;;;;;5082920;28;20426;-66
2023/09/30 02:17:27;;;;;;;9.60;5.22;;;13.20;99.90;;;;;;5086153;28;20452;-66
2023/09/30 02:19:54;;;;;;;9.65;4.80;;;13.20;99.90;;;;;;5090546;28;20783;-67
2023/09/30 02:22:21;;;;;;;9.80;5.80;;;13.20;99.90;;;;;;5086035;28;20424;-68
2023/09/30 02:24:49;;;;;;;7.13;5.25;;;13.20;99.90;;;;;;5083862;28;20907;-66
2023/09/30 02:27:16;;;;;;;10.20;5.18;;;13.20;99.90;;;;;;5078892;28;20406;-67
2023/09/30 02:29:42;;;;;;;11.93;5.72;;;13.20;99.90;;;;;;5091363;28;20788;-65
2023/09/30 02:32:10;;;;;;;10.32;5.38;;;13.20;99.90;;;;;;5087929;28;20423;-67
2023/09/30 02:34:37;;;;;;;8.47;5.20;;;13.20;99.90;;;;;;5081368;28;20427;-66
2023/09/30 02:37:04;;;;;;;12.32;5.80;;;13.20;99.90;;;;;;5081793;28;20679;-65
2023/09/30 02:39:31;;;;;;;9.85;5.50;;;13.30;99.90;;;;;;5080610;28;20906;-67
2023/09/30 02:41:58;;;;;;;9.93;5.68;;;13.20;99.90;;;;;;5084065;28;20998;-65
2023/09/30 02:44:24;;;;;;;11.13;6.03;;;13.20;99.90;;;;;;5077382;28;20431;-65
2023/09/30 02:46:51;;;;;;;12.05;6.90;;;13.20;99.90;;;;;;5094859;28;20409;-66
2023/09/30 02:49:19;;;;;;;11.98;6.13;;;13.20;99.90;;;;;;5097092;28;20433;-66
2023/09/30 02:51:46;;;;;;;10.70;6.72;;;13.20;99.90;;;;;;5094584;28;20414;-66
2023/09/30 02:54:15;;;;;;;8.73;6.07;;;13.20;99.90;;;;;;5083101;28;20406;-66
2023/09/30 02:56:42;;;;;;;9.73;6.07;;;13.20;99.90;;;;;;5091313;28;20889;-66
2023/09/30 02:59:08;;;;;;;10.70;6.72;;;13.30;99.90;;;;;;5087158;28;20434;-67
2023/09/30 03:01:35;;;;;;;8.63;5.90;;;13.20;99.90;;;;;;5089515;28;20441;-66
2023/09/30 03:04:02;;;;;;;9.20;6.70;;;13.20;99.90;;;;;;5087115;28;21070;-66
2023/09/30 03:06:30;;;;;;;10.90;6.97;;;13.10;99.90;;;;;;5082342;28;20414;-66
2023/09/30 03:08:57;;;;;;;11.60;6.65;;;13.10;99.90;;;;;;5090542;28;20712;-66
2023/09/30 03:11:23;;;;;;;9.95;6.70;;;13.10;99.90;;;;;;5086017;28;20412;-66
2023/09/30 03:13:50;;;;;;;11.15;6.10;;;13.00;99.90;;;;;;5084586;28;20411;-67
2023/09/30 03:16:17;;;;;;;11.00;6.85;;;13.00;99.90;;;;;;5084406;28;20432;-66
2023/09/30 03:18:44;;;;;;;8.60;6.13;;;13.00;99.90;;;;;;5087632;28;20429;-66
2023/09/30 03:21:15;;;;;;;8.70;6.18;;;13.00;99.90;;;;;;5082359;28;20443;-65
2023/09/30 03:23:43;;;;;;;11.07;6.80;;;13.00;99.90;;;;;;5077909;28;20486;-67
2023/09/30 03:26:10;;;;;;;10.52;6.90;;;13.00;99.90;;;;;;5084638;28;20430;-66
2023/09/30 03:28:37;;;;;;;9.52;6.15;;;13.00;99.90;;;;;;5085357;28;20414;-65
2023/09/30 03:31:05;;;;;;;10.32;6.90;;;13.00;99.90;;;;;;5095798;28;20409;-66
2023/09/30 03:33:33;;;;;;;11.13;6.43;;;13.10;99.90;;;;;;5086681;28;20409;-66
2023/09/30 03:36:00;;;;;;;12.10;7.97;;;13.10;99.90;;;;;;5083548;28;20414;-67
2023/09/30 03:38:27;;;;;;;10.68;6.53;;;13.10;99.90;;;;;;5086964;28;20424;-66
2023/09/30 03:40:55;;;;;;;9.55;7.03;;;13.10;99.90;;;;;;5087010;28;20426;-66
2023/09/30 03:43:23;;;;;;;9.00;7.10;;;13.10;99.90;;;;;;5077352;28;20912;-65
2023/09/30 03:45:50;;;;;;;10.77;6.80;;;13.10;99.90;;;;;;5079654;28;20418;-66
2023/09/30 03:48:18;;;;;;;9.35;6.35;;;13.10;99.90;;;;;;5082635;28;20487;-66
2023/09/30 03:50:45;;;;;;;9.35;6.40;;;13.10;99.90;;;;;;5075158;28;20423;-66
2023/09/30 03:53:12;;;;;;;11.20;7.00;;;13.10;99.90;;;;;;5086245;28;20838;-66
2023/09/30 03:55:39;;;;;;;11.13;6.80;;;13.10;99.90;;;;;;5090251;28;20843;-66
2023/09/30 03:58:07;;;;;;;8.10;6.43;;;13.10;99.90;;;;;;5081818;28;20441;-66
2023/09/30 04:00:35;;;;;;;10.52;7.20;;;13.10;99.90;;;;;;5085816;28;20415;-65
2023/09/30 04:03:02;;;;;;;11.15;7.18;;;13.10;99.90;;;;;;5083002;28;20453;-68
2023/09/30 04:05:31;;;;;;;12.43;7.22;;;13.10;99.90;;;;;;5082232;28;20427;-66
2023/09/30 04:07:58;;;;;;;10.43;6.85;;;13.10;99.90;;;;;;5073381;28;20422;-66
2023/09/30 04:10:25;;;;;;;9.68;7.00;;;13.10;99.90;;;;;;5082517;28;20892;-67
2023/09/30 04:12:52;;;;;;;9.15;7.13;;;13.00;99.90;;;;;;5081084;28;20410;-66
2023/09/30 04:15:20;;;;;;;11.10;7.95;;;13.00;99.90;;;;;;5081759;28;20489;-66
2023/09/30 04:17:47;;;;;;;9.77;7.45;;;13.00;99.90;;;;;;5086358;28;20430;-67
2023/09/30 04:20:20;;;;;;;10.63;7.70;;;13.00;99.90;;;;;;5076986;28;20434;-66
2023/09/30 04:22:48;;;;;;;11.57;8.20;;;13.00;99.90;;;;;;5080539;28;20442;-66
2023/09/30 04:25:16;;;;;;;11.80;7.70;;;13.00;99.90;;;;;;5089173;28;20414;-67
2023/09/30 04:27:47;;;;;;;10.05;8.55;;;13.00;99.90;;;;;;5089089;28;20412;-66
2023/09/30 04:30:15;;;;;;;12.67;8.67;;;13.00;99.90;;;;;;5079488;28;20931;-65
2023/09/30 04:32:43;;;;;;;12.05;9.30;;;13.00;99.90;;;;;;5081730;28;20425;-66
2023/09/30 04:35:10;;;;;;;11.55;8.80;;;13.00;99.90;;;;;;5082203;28;20441;-66
2023/09/30 04:37:37;;;;;;;13.70;9.07;;;13.00;99.90;;;;;;5085339;28;20412;-65
2023/09/30 04:40:09;;;;;;;13.20;9.33;;;13.00;99.90;;;;;;5086752;28;20456;-67
2023/09/30 04:42:36;;;;;;;13.68;9.43;;;13.00;99.90;;;;;;5086127;28;20425;-66
2023/09/30 04:45:06;;;;;;;12.15;9.00;;;13.00;99.90;;;;;;5085088;28;20425;-67
2023/09/30 04:47:33;;;;;;;10.07;8.60;;;13.00;99.90;;;;;;5078308;28;20426;-66
2023/09/30 04:50:04;;;;;;;10.35;8.63;;;13.00;99.90;;;;;;5078554;28;20528;-66
2023/09/30 04:52:31;;;;;;;10.45;7.75;;;12.90;99.90;;;;;;5079622;28;20921;-67
2023/09/30 04:54:59;;;;;;;13.38;8.20;;;12.90;99.90;;;;;;5086585;28;20410;-66
2023/09/30 04:57:26;;;;;;;10.25;8.45;;;12.80;99.90;;;;;;5088251;28;20518;-66
2023/09/30 04:59:53;;;;;;;11.52;8.15;;;12.80;99.90;;;;;;5088072;28;20417;-67
2023/09/30 05:02:21;;;;;;;11.87;8.57;;;12.80;99.90;;;;;;5094938;22;21385;-69
2023/09/30 05:04:48;;;;;;;10.80;9.03;;;12.80;99.90;;;;;;5050059;28;21041;-70
2023/09/30 05:07:16;;;;;;;11.20;7.83;;;12.80;99.90;;;;;;5055905;28;20436;-69
2023/09/30 05:09:44;;;;;;;12.27;8.45;;;12.80;99.90;;;;;;5043449;28;20429;-70
2023/09/30 05:12:11;;;;;;;10.63;8.25;;;12.80;99.90;;;;;;5054187;28;21088;-70
2023/09/30 05:14:38;;;;;;;14.57;8.88;;;12.80;99.90;;;;;;5061932;28;21035;-69
2023/09/30 05:17:05;;;;;;;9.43;7.80;;;12.80;99.90;;;;;;5057352;28;20970;-69
2023/09/30 05:19:32;;;;;;;11.40;8.02;;;12.70;99.90;;;;;;5059290;28;20875;-69
2023/09/30 05:22:00;;;;;;;10.57;7.67;;;12.70;99.90;;;;;;5059781;28;20459;-70
2023/09/30 05:24:28;;;;;;;12.50;7.90;;;12.70;99.90;;;;;;5063852;28;20913;-71
2023/09/30 05:26:55;;;;;;;11.70;7.95;;;12.70;99.90;;;;;;5064343;28;20850;-70
2023/09/30 05:29:22;;;;;;;10.93;7.05;;;12.70;99.90;;;;;;5060398;28;20439;-69
2023/09/30 05:31:49;;;;;;;8.82;7.78;;;12.70;99.90;;;;;;5062591;28;20406;-69
2023/09/30 05:34:16;;;;;;;10.88;7.72;;;12.70;99.90;;;;;;5061911;28;20454;-69
2023/09/30 05:36:43;;;;;;;11.20;8.13;;;12.70;99.90;;;;;;5060732;28;20431;-69
2023/09/30 05:39:11;;;;;;;10.82;7.65;;;12.70;99.90;;;;;;5063632;28;20877;-70
2023/09/30 05:41:41;;;;;;;10.23;7.47;;;12.70;99.90;;;;;;5063324;28;20416;-69
2023/09/30 05:44:08;;;;;;;9.90;7.65;;;12.70;99.90;;;;;;5060150;28;20895;-69
2023/09/30 05:46:35;;;;;;;9.10;7.35;;;12.70;99.90;;;;;;5065656;28;20540;-70
2023/09/30 05:49:07;;;;;;;9.68;7.50;;;12.70;99.90;;;;;;5067378;28;20869;-66
2023/09/30 05:51:33;;;;;;;8.95;7.40;;;12.70;99.90;;;;;;5065807;28;20500;-66
2023/09/30 05:54:00;;;;;;;11.07;7.55;;;12.70;99.90;;;;;;5066773;28;20544;-66
2023/09/30 05:56:27;;;;;;;9.55;8.00;;;12.70;99.90;;;;;;5068647;28;20443;-65
2023/09/30 05:58:55;;;;;;;8.93;7.63;;;12.70;99.90;;;;;;5066468;28;20434;-66
2023/09/30 06:01:22;;;;;;;9.27;7.32;;;12.70;99.90;;;;;;5072328;28;20526;-67
2023/09/30 06:03:49;;;;;;;10.65;7.30;;;12.70;99.90;;;;;;5067173;28;20445;-65
2023/09/30 06:06:16;;;;;;;9.27;7.82;;;12.70;99.90;;;;;;5068835;28;20416;-65
2023/09/30 06:08:45;;;;;;;10.77;7.85;;;12.70;99.90;;;;;;5066065;28;20500;-65
2023/09/30 06:11:17;;;;;;;10.60;7.97;;;12.70;99.90;;;;;;5068501;28;20817;-71
2023/09/30 06:13:44;;;;;;;11.52;7.75;;;12.70;99.90;;;;;;5066396;28;20918;-69
2023/09/30 06:16:12;;;;;;;11.40;8.98;;;12.80;99.90;;;;;;5067743;28;20435;-71
2023/09/30 06:18:39;;;;;;;12.25;8.40;;;12.80;99.90;;;;;;5064946;28;20530;-70
2023/09/30 06:21:06;;;;;;;10.43;8.55;;;12.80;99.90;;;;;;5068204;28;20435;-71
2023/09/30 06:23:33;;;;;;;13.35;9.38;;;12.80;99.90;;;;;;5070132;28;20442;-70
2023/09/30 06:26:02;;;;;;;11.45;9.55;;;12.80;99.90;;;;;;5069290;28;20574;-70
2023/09/30 06:28:31;;;;;;;14.02;9.90;;;12.80;99.90;;;;;;5068702;28;20426;-70
2023/09/30 06:30:58;;;;;;;12.68;10.10;;;12.80;99.90;;;;;;5068997;28;20457;-69
2023/09/30 06:33:29;;;;;;;12.70;10.18;;;12.80;99.90;;;;;;5068184;28;20461;-70
2023/09/30 06:35:55;;;;;;;16.92;11.02;;;12.80;99.90;;;;;;5069680;28;20399;-70
2023/09/30 06:38:22;;;;;;;14.57;11.18;;;12.70;99.90;;;;;;5069946;28;20439;-69
2023/09/30 06:40:49;;;;;;;17.40;12.15;;;12.80;99.90;;;;;;5068335;28;20430;-70
2023/09/30 06:43:16;;;;;;;19.45;11.80;;;12.80;99.90;;;;;;5069567;28;20416;-72
2023/09/30 06:45:43;;;;;;;17.67;12.85;;;12.80;99.90;;;;;;5069276;28;20407;-71
2023/09/30 06:48:12;;;;;;;21.73;12.68;;;12.80;99.90;;;;;;5066231;28;20510;-70
2023/09/30 06:50:41;;;;;;;19.48;11.77;;;12.80;99.90;;;;;;5063599;28;20431;-70
2023/09/30 06:53:09;;;;;;;15.75;12.43;;;12.80;99.90;;;;;;5069719;28;20412;-71
2023/09/30 06:55:38;;;;;;;15.45;12.80;;;12.90;99.90;;;;;;5069755;28;20439;-72
2023/09/30 06:58:07;;;;;;;16.77;13.03;;;12.90;99.90;;;;;;5065873;28;20411;-71
2023/09/30 07:00:35;;;;;;;16.92;12.50;;;12.90;99.90;;;;;;5068316;28;20451;-71
2023/09/30 07:03:02;;;;;;;15.80;12.30;;;13.00;99.90;;;;;;5067321;28;20453;-70
2023/09/30 07:05:29;;;;;;;14.38;11.35;;;13.00;99.90;;;;;;5066131;28;20816;-71
2023/09/30 07:07:57;;;;;;;14.80;12.27;;;12.90;99.90;;;;;;5066152;28;20986;-70
2023/09/30 07:10:24;;;;;;;12.50;11.20;;;13.00;99.90;;;;;;5065616;28;20885;-70
2023/09/30 07:12:51;;;;;;;13.38;11.98;;;13.00;99.90;;;;;;5065822;28;20414;-70
2023/09/30 07:15:17;;;;;;;17.13;12.82;;;13.00;99.90;;;;;;5065324;28;20555;-71
2023/09/30 07:17:45;;;;;;;15.90;12.80;;;12.90;99.90;;;;;;5065205;28;20431;-70
2023/09/30 07:20:12;;;;;;;18.67;14.50;;;12.90;99.90;;;;;;5064949;28;20549;-70
2023/09/30 07:22:39;;;;;;;17.92;15.65;;;12.90;99.90;;;;;;5065929;28;20419;-71
2023/09/30 07:25:08;;;;;;;18.52;14.90;;;12.90;99.90;;;;;;5067705;28;20415;-70
2023/09/30 07:27:35;;;;;;;19.65;15.77;;;13.00;99.90;;;;;;5065747;28;20460;-72
2023/09/30 07:30:02;;;;;;;15.30;13.73;;;13.00;99.90;;;;;;5064463;28;20926;-71
2023/09/30 07:32:29;;;;;;;15.90;14.20;;;13.10;99.90;;;;;;5056786;28;21161;-70
2023/09/30 07:34:56;;;;;;;15.95;14.25;;;13.20;99.90;;;;;;5065168;28;20450;-71
2023/09/30 07:37:23;;;;;;;14.40;12.90;;;13.20;99.90;;;;;;5064752;28;20423;-71
2023/09/30 07:39:51;;;;;;;14.75;13.25;;;13.30;99.90;;;;;;5064618;28;20928;-70
2023/09/30 07:42:19;;;;;;;14.55;13.10;;;13.30;99.90;;;;;;5064731;28;20751;-71
2023/09/30 07:44:45;;;;;;;14.45;12.95;;;13.40;99.90;;;;;;5064886;28;20408;-71
2023/09/30 07:47:13;;;;;;;14.38;12.93;;;13.40;99.90;;;;;;5064121;28;20932;-71
2023/09/30 07:49:39;;;;;;;13.15;11.90;;;13.50;99.90;;;;;;5056326;28;20480;-71
2023/09/30 07:52:06;;;;;;;14.70;13.20;;;13.50;99.90;;;;;;5064468;28;20415;-71
2023/09/30 07:54:33;;;;;;;14.68;12.30;;;13.50;99.90;;;;;;5064763;28;20885;-71
2023/09/30 07:57:00;;;;;;;14.00;12.70;;;13.60;99.90;;;;;;5064987;28;20418;-71
2023/09/30 07:59:28;;;;;;;13.30;11.95;;;13.60;99.90;;;;;;5064681;28;20411;-71
2023/09/30 08:01:55;;;;;;;14.25;12.75;;;13.60;99.90;;;;;;5063913;28;20479;-71
2023/09/30 08:04:22;;;;;;;13.77;12.30;;;13.70;99.90;;;;;;5063000;28;20764;-71
2023/09/30 08:06:50;;;;;;;13.43;12.15;;;13.70;99.90;;;;;;5063830;28;20494;-71
2023/09/30 08:09:18;;;;;;;12.50;11.30;;;13.70;99.90;;;;;;5063741;28;20439;-72
2023/09/30 08:11:45;;;;;;;12.83;11.53;;;13.70;99.90;;;;;;5064829;28;20507;-71
2023/09/30 08:14:12;;;;;;;13.57;12.27;;;13.80;99.90;;;;;;5064199;28;20427;-71
2023/09/30 08:16:40;;;;;;;12.45;11.35;;;13.90;99.90;;;;;;5062418;28;20431;-71
2023/09/30 08:19:07;;;;;;;13.02;11.82;;;14.00;99.90;;;;;;5064153;28;20511;-71
2023/09/30 08:21:33;;;;;;;12.90;11.60;;;14.10;99.90;;;;;;5063876;28;20422;-72
2023/09/30 08:24:00;;;;;;;13.85;11.57;;;14.20;99.90;;;;;;5063705;28;20530;-73
2023/09/30 08:26:27;;;;;;;13.27;11.97;;;14.20;99.90;;;;;;5063456;28;20505;-71
2023/09/30 08:28:54;;;;;;;13.10;11.68;;;14.30;99.90;;;;;;5064070;28;20404;-72
2023/09/30 08:31:21;;;;;;;12.43;11.23;;;14.40;99.90;;;;;;5053662;28;20427;-71
2023/09/30 08:33:49;;;;;;;12.35;11.25;;;14.60;99.90;;;;;;5063697;28;20412;-71
2023/09/30 08:36:16;;;;;;;11.02;10.13;;;14.80;99.90;;;;;;5062908;28;20454;-71
2023/09/30 08:38:43;;;;;;;12.20;11.00;;;15.20;99.90;;;;;;5062995;28;20499;-72
2023/09/30 08:41:10;;;;;;;11.63;10.55;;;15.50;99.90;;;;;;5064470;28;20411;-71
2023/09/30 08:43:39;;;;;;;11.07;10.07;;;15.70;99.90;;;;;;5063301;28;20889;-71
2023/09/30 08:46:06;;;;;;;11.60;10.40;;;15.90;99.90;;;;;;5062839;28;20434;-71
2023/09/30 08:48:33;;;;;;;13.13;10.60;;;16.10;99.90;;;;;;5061496;28;20440;-72
2023/09/30 08:51:03;;;;;;;11.10;10.00;;;16.40;99.90;;;;;;5064090;28;20408;-72
2023/09/30 08:53:30;;;;;;;10.90;9.90;;;16.40;99.90;;;;;;5063446;28;20502;-71
2023/09/30 08:56:00;;;;;;;11.05;9.95;;;16.40;99.90;;;;;;5063415;28;20428;-71
2023/09/30 08:58:28;;;;;;;11.20;10.10;;;16.50;99.90;;;;;;5055866;28;20422;-71
2023/09/30 09:00:56;;;;;;;11.40;10.30;;;16.70;99.90;;;;;;5066181;28;20434;-71
2023/09/30 09:03:23;;;;;;;10.70;9.70;;;16.90;99.90;;;;;;5055251;28;20416;-71
2023/09/30 09:05:55;;;;;;;11.73;10.52;;;17.00;99.90;;;;;;5063539;28;20419;-71
2023/09/30 09:08:23;;;;;;;13.00;11.70;;;17.10;99.90;;;;;;5056075;28;20403;-71
2023/09/30 09:10:58;;;;;;;14.55;13.00;;;17.20;99.30;;;;;;5062340;28;20435;-72
2023/09/30 09:13:25;;;;;;;12.90;11.60;;;17.20;99.10;;;;;;5055660;28;20744;-71
2023/09/30 09:16:07;;;;;;;13.20;11.93;;;17.20;99.30;;;;;;5061866;28;20901;-72
2023/09/30 09:18:35;;;;;;;13.45;12.15;;;17.30;98.90;;;;;;5056226;28;20889;-71
2023/09/30 09:21:13;;;;;;;14.00;12.70;;;17.50;99.00;;;;;;5062774;28;20885;-72
2023/09/30 09:23:51;;;;;;;14.73;13.23;;;17.60;98.00;;;;;;5062461;28;20408;-70
2023/09/30 09:26:25;;;;;;;13.70;12.30;;;17.70;97.70;;;;;;5061728;28;20507;-75
2023/09/30 09:28:57;;;;;;;13.40;12.20;;;17.80;97.70;;;;;;5062514;28;20427;-71
2023/09/30 09:31:25;;;;;;;13.52;12.23;;;18.10;97.30;;;;;;5053966;28;20751;-71
2023/09/30 09:33:53;;;;;;;15.43;13.90;;;18.40;96.60;;;;;;5061907;28;20419;-71
2023/09/30 09:36:20;;;;;;;14.02;12.73;;;18.50;95.70;;;;;;5063244;28;20428;-70
2023/09/30 09:38:53;;;;;;;12.93;11.73;;;18.80;94.60;;;;;;5061712;28;20518;-72
2023/09/30 09:41:20;;;;;;;12.30;11.10;;;19.00;93.60;;;;;;5061887;28;20419;-71
2023/09/30 09:43:50;;;;;;;11.88;10.25;;;18.90;93.30;;;;;;5061888;28;20411;-73
2023/09/30 09:46:18;;;;;;;10.63;9.52;;;19.00;92.50;;;;;;5060798;28;20532;-71
2023/09/30 09:48:47;;;;;;;11.53;10.33;;;19.10;92.80;;;;;;5057847;28;20408;-73
2023/09/30 09:51:14;;;;;;;10.70;9.80;;;19.30;92.60;;;;;;5062474;28;20492;-71
2023/09/30 09:53:43;;;;;;;11.63;10.52;;;19.40;92.50;;;;;;5060756;28;20443;-71
2023/09/30 09:56:12;;;;;;;11.20;10.10;;;19.60;91.80;;;;;;5062931;28;20536;-72
2023/09/30 09:58:42;;;;;;;12.03;10.37;;;19.70;91.60;;;;;;5061905;28;20441;-72
2023/09/30 10:01:09;;;;;;;10.40;9.50;;;19.90;91.40;;;;;;5066693;28;20430;-71
2023/09/30 10:03:37;;;;;;;10.68;9.57;;;20.10;90.90;;;;;;5060677;28;20450;-71
2023/09/30 10:06:05;;;;;;;10.82;9.82;;;20.30;90.00;;;;;;5062533;28;20594;-71
2023/09/30 10:08:36;;;;;;;9.48;8.55;;;20.40;89.00;;;;;;5061050;28;20440;-74
2023/09/30 10:11:03;;;;;;;9.32;7.80;;;20.50;87.80;;;;;;5062795;28;20506;-71
2023/09/30 10:13:55;;;;;;;9.50;8.50;;;20.70;86.70;;;;;;5062663;28;20782;-72
2023/09/30 10:16:52;;;;;;;9.70;8.80;;;21.00;85.70;;;;;;5055001;28;20515;-71
2023/09/30 10:19:22;;;;;;;8.55;7.75;;;21.20;82.60;;;;;;5061570;28;20407;-71
2023/09/30 10:22:26;;;;;;;9.53;8.63;;;21.10;83.10;;;;;;5060141;28;20446;-72
2023/09/30 10:24:54;;;;;;;9.00;8.10;;;21.10;83.50;;;;;;5058545;28;20584;-71
2023/09/30 10:27:38;;;;;;;9.75;8.80;;;21.30;82.80;;;;;;5061786;28;20426;-71
2023/09/30 10:30:14;;;;;;;9.50;8.50;;;21.40;83.00;;;;;;5061375;28;20408;-71
2023/09/30 10:33:09;;;;;;;8.70;7.80;;;21.50;80.30;;;;;;5058441;28;20887;-71
2023/09/30 10:35:53;;;;;;;8.00;7.20;;;21.80;79.40;;;;;;5070435;28;20427;-72
2023/09/30 10:38:40;;;;;;;7.38;6.68;;;22.00;77.30;;;;;;5064673;28;20423;-71
2023/09/30 10:41:08;;;;;;;7.70;7.00;;;22.30;76.10;;;;;;5065951;28;20423;-72
2023/09/30 10:43:36;;;;;;;7.25;6.00;;;22.40;73.90;;;;;;5066003;28;20970;-72
2023/09/30 10:46:07;;;;;;;6.15;5.30;;;22.60;72.70;;;;;;5064922;28;20446;-71
2023/09/30 10:48:35;;;;;;;6.30;5.03;;;22.70;69.20;;;;;;5064799;28;20420;-71
2023/09/30 10:51:10;;;;;;;6.40;5.40;;;22.60;67.30;;;;;;5066410;28;20424;-71
2023/09/30 10:53:42;;;;;;;7.20;5.70;;;22.40;68.20;;;;;;5066361;28;20806;-71
2023/09/30 10:56:08;;;;;;;7.00;5.60;;;22.40;69.00;;;;;;5066081;28;20428;-71
2023/09/30 10:58:40;;;;;;;6.00;5.40;;;22.30;70.10;;;;;;5065388;28;20408;-72
2023/09/30 11:01:09;;;;;;;6.63;5.53;;;22.10;68.20;;;;;;5070542;28;20430;-71
2023/09/30 11:03:36;;;;;;;6.45;5.18;;;21.90;70.90;;;;;;5065071;28;20527;-71
2023/09/30 11:06:03;;;;;;;6.05;5.45;;;21.60;72.20;;;;;;5065175;28;20659;-72
2023/09/30 11:08:31;;;;;;;7.47;5.95;;;21.30;73.20;;;;;;5065185;28;20477;-73
2023/09/30 11:11:00;;;;;;;6.35;5.63;;;21.10;75.00;;;;;;5065697;28;20719;-72
2023/09/30 11:13:33;;;;;;;7.18;5.97;;;20.90;75.40;;;;;;5066093;28;20784;-72
2023/09/30 11:16:04;;;;;;;6.20;5.30;;;20.80;76.70;;;;;;5065815;28;20481;-71
2023/09/30 11:18:33;;;;;;;7.85;6.00;;;20.90;76.20;;;;;;5058174;28;20913;-72
2023/09/30 11:21:08;;;;;;;7.47;5.85;;;21.10;75.60;;;;;;5064951;28;20416;-72
2023/09/30 11:23:35;;;;;;;6.30;5.30;;;21.40;73.70;;;;;;5066721;28;20422;-72
2023/09/30 11:26:02;;;;;;;6.40;5.23;;;21.60;72.00;;;;;;5065930;28;20818;-72
2023/09/30 11:28:37;;;;;;;6.80;5.57;;;21.80;70.80;;;;;;5065742;28;20490;-72
2023/09/30 11:31:06;;;;;;;5.97;5.30;;;21.70;71.10;;;;;;5062981;28;20430;-71
2023/09/30 11:33:48;;;;;;;7.05;5.13;;;21.50;70.80;;;;;;5060425;28;20465;-73
2023/09/30 11:36:15;;;;;;;5.55;4.95;;;21.40;72.80;;;;;;5066019;28;20458;-72
2023/09/30 11:38:46;;;;;;;5.80;4.32;;;21.30;73.20;;;;;;5064950;28;20411;-71
2023/09/30 11:41:12;;;;;;;6.22;4.07;;;21.20;68.50;;;;;;5065890;28;20701;-71
2023/09/30 11:43:39;;;;;;;5.68;4.63;;;20.90;68.10;;;;;;5065881;28;20494;-71
2023/09/30 11:46:08;;;;;;;4.73;4.23;;;20.70;70.90;;;;;;5064328;28;20435;-71
2023/09/30 11:48:37;;;;;;;5.43;4.30;;;20.50;72.80;;;;;;5064688;28;20857;-72
2023/09/30 11:51:04;;;;;;;6.38;4.50;;;20.30;74.10;;;;;;5065360;28;20408;-71
2023/09/30 11:53:31;;;;;;;4.45;3.30;;;20.20;75.20;;;;;;5065565;28;20422;-72
2023/09/30 11:55:58;;;;;;;4.75;3.15;;;20.10;70.30;;;;;;5066080;28;20427;-73
2023/09/30 11:58:27;;;;;;;4.65;3.28;;;20.00;69.40;;;;;;5066037;28;20419;-73
2023/09/30 12:01:00;;;;;;;4.35;3.00;;;19.90;68.50;;;;;;5068578;28;20426;-73
2023/09/30 12:03:28;;;;;;;4.17;3.47;;;19.80;68.20;;;;;;5056813;28;20431;-72
2023/09/30 12:05:56;;;;;;;4.30;3.33;;;19.80;69.10;;;;;;5064010;28;20408;-72
2023/09/30 12:08:23;;;;;;;5.97;4.30;;;20.00;72.10;;;;;;5064239;28;20497;-72
2023/09/30 12:10:49;;;;;;;4.20;3.40;;;20.40;70.30;;;;;;5063175;28;20802;-74
2023/09/30 12:13:16;;;;;;;4.80;3.80;;;20.80;68.40;;;;;;5064844;28;20522;-70
2023/09/30 12:15:44;;;;;;;4.80;4.20;;;21.20;68.50;;;;;;5062868;28;20482;-73
2023/09/30 12:18:13;;;;;;;4.43;3.50;;;21.80;67.80;;;;;;5064287;28;20417;-73
2023/09/30 12:20:41;;;;;;;4.57;3.78;;;22.20;67.00;;;;;;5063824;28;20411;-73
2023/09/30 12:23:09;;;;;;;4.85;3.50;;;22.60;65.10;;;;;;5063603;28;20883;-72
2023/09/30 12:25:37;;;;;;;3.92;3.53;;;22.90;61.90;;;;;;5063981;28;20546;-72
2023/09/30 12:28:05;;;;;;;4.72;3.70;;;23.20;57.60;;;;;;5062919;28;20507;-73
2023/09/30 12:30:32;;;;;;;4.75;3.70;;;23.30;56.70;;;;;;5063999;28;20424;-73
2023/09/30 12:32:59;;;;;;;4.50;3.15;;;23.30;56.40;;;;;;5064241;28;20423;-73
2023/09/30 12:35:26;;;;;;;4.25;3.40;;;23.50;56.30;;;;;;5063776;28;20415;-72
2023/09/30 12:37:52;;;;;;;4.13;2.90;;;23.60;57.40;;;;;;5063145;28;20522;-73
2023/09/30 12:40:20;;;;;;;3.88;3.40;;;23.70;55.40;;;;;;5063039;28;20447;-73
2023/09/30 12:42:47;;;;;;;4.72;3.60;;;23.90;54.70;;;;;;5064249;28;20460;-73
2023/09/30 12:45:14;;;;;;;4.17;3.20;;;24.10;53.50;;;;;;5061974;28;20443;-73